^^
Saratoga-Weather Station Historical Data
Daily Summary for January 13, 2020 Units:  Metric    English   Both
Daily Weekly Monthly Yearly Custom
  High: Low: Average:
Temperature: 32.8 °C 19.4 °C 24.7 °C
Dew Point: 20.6 °C 14.3 °C 18 °C
Humidity: 94% 34% 71%
Wind Speed: 14.3km/h 0km/h 2.1km/h
Wind Gust: 17.7km/h - -
Wind- - SW
Pressure: 1012.2 hPa 1010.2 hPa -
Precipitation: 0.0 mm    
Historical Graphs
 
 
Tabular Data for January 13, 2020
Time Temperature Dew Point Pressure Wind Wind Speed Wind Gust Humidity Rainfall Rate (Hourly) solar
00:03 21.3 °C 19.8 °C 1011.5 hPa Calm     91% 0.0 mm 0 W/m2
00:08 21.2 °C 19.7 °C 1011.5 hPa SSW 1.4 km/h 3.2 km/h 91% 0.0 mm 0 W/m2
00:13 21.1 °C 19.6 °C 1011.5 hPa SSW 1.4 km/h 3.2 km/h 91% 0.0 mm 0 W/m2
00:18 21.1 °C 19.6 °C 1011.5 hPa SSW 1.4 km/h 3.2 km/h 91% 0.0 mm 0 W/m2
00:23 21 °C 19.5 °C 1011.5 hPa SSW 1.4 km/h 3.2 km/h 91% 0.0 mm 0 W/m2
00:28 20.9 °C 19.4 °C 1011.2 hPa SSW 3.2 km/h 3.2 km/h 91% 0.0 mm 0 W/m2
00:33 20.8 °C 19.3 °C 1011.2 hPa SW 1.4 km/h 3.2 km/h 91% 0.0 mm 0 W/m2
00:38 20.8 °C 19.3 °C 1011.2 hPa Calm   1.6 km/h 91% 0.0 mm 0 W/m2
00:43 20.8 °C 19.3 °C 1011.2 hPa Calm   1.6 km/h 91% 0.0 mm 0 W/m2
00:48 20.7 °C 19.2 °C 1011.2 hPa Calm   1.6 km/h 91% 0.0 mm 0 W/m2
00:53 20.6 °C 19.1 °C 1011.2 hPa SW 1.4 km/h 3.2 km/h 91% 0.0 mm 0 W/m2
00:59 20.6 °C 19.1 °C 1010.8 hPa Calm   1.6 km/h 91% 0.0 mm 0 W/m2
01:04 20.6 °C 19.1 °C 1010.8 hPa Calm   1.6 km/h 91% 0.0 mm 0 W/m2
01:09 20.5 °C 19 °C 1010.8 hPa Calm   1.6 km/h 91% 0.0 mm 0 W/m2
01:14 20.4 °C 18.9 °C 1010.8 hPa SSE 3.2 km/h 3.2 km/h 91% 0.0 mm 0 W/m2
01:19 20.4 °C 18.9 °C 1010.8 hPa Calm   3.2 km/h 91% 0.0 mm 0 W/m2
01:24 20.4 °C 18.9 °C 1010.5 hPa South 3.2 km/h 3.2 km/h 91% 0.0 mm 0 W/m2
01:29 20.4 °C 18.9 °C 1010.5 hPa South 3.2 km/h 3.2 km/h 91% 0.0 mm 0 W/m2
01:34 20.3 °C 18.8 °C 1010.5 hPa Calm   1.6 km/h 91% 0.0 mm 0 W/m2
01:39 20.3 °C 18.8 °C 1010.5 hPa Calm   1.6 km/h 91% 0.0 mm 0 W/m2
01:44 20.2 °C 18.7 °C 1010.5 hPa Calm   1.6 km/h 91% 0.0 mm 0 W/m2
01:49 20.1 °C 18.6 °C 1010.5 hPa Calm     91% 0.0 mm 0 W/m2
01:54 20 °C 18.5 °C 1010.5 hPa Calm     91% 0.0 mm 0 W/m2
01:59 19.9 °C 18.6 °C 1010.5 hPa Calm     92% 0.0 mm 0 W/m2
02:04 19.9 °C 18.6 °C 1010.2 hPa Calm     92% 0.0 mm 0 W/m2
02:09 19.8 °C 18.5 °C 1010.2 hPa Calm     92% 0.0 mm 0 W/m2
02:14 19.8 °C 18.5 °C 1010.2 hPa Calm     92% 0.0 mm 0 W/m2
02:19 19.7 °C 18.4 °C 1010.2 hPa Calm     92% 0.0 mm 0 W/m2
02:24 19.7 °C 18.4 °C 1010.2 hPa Calm     92% 0.0 mm 0 W/m2
02:29 19.7 °C 18.5 °C 1010.2 hPa Calm     93% 0.0 mm 0 W/m2
02:34 19.6 °C 18.4 °C 1010.2 hPa Calm     93% 0.0 mm 0 W/m2
02:39 19.6 °C 18.4 °C 1010.2 hPa Calm     93% 0.0 mm 0 W/m2
02:44 19.5 °C 18.3 °C 1010.2 hPa Calm     93% 0.0 mm 0 W/m2
02:49 19.5 °C 18.3 °C 1010.2 hPa Calm     93% 0.0 mm 0 W/m2
02:54 19.5 °C 18.3 °C 1010.2 hPa Calm     93% 0.0 mm 0 W/m2
02:59 19.4 °C 18.2 °C 1010.2 hPa Calm     93% 0.0 mm 0 W/m2
03:04 19.4 °C 18.2 °C 1010.2 hPa Calm     93% 0.0 mm 0 W/m2
03:10 19.4 °C 18.2 °C 1010.2 hPa South 1.4 km/h 1.6 km/h 93% 0.0 mm 0 W/m2
03:15 19.5 °C 18.5 °C 1010.2 hPa Calm     94% 0.0 mm 0 W/m2
03:20 19.5 °C 18.3 °C 1010.2 hPa Calm     93% 0.0 mm 0 W/m2
03:25 19.5 °C 18.3 °C 1010.2 hPa Calm     93% 0.0 mm 0 W/m2
03:30 19.5 °C 18.3 °C 1010.5 hPa Calm     93% 0.0 mm 0 W/m2
03:35 19.6 °C 18.4 °C 1010.5 hPa Calm     93% 0.0 mm 0 W/m2
03:40 19.6 °C 18.4 °C 1010.2 hPa Calm     93% 0.0 mm 0 W/m2
03:45 19.6 °C 18.4 °C 1010.2 hPa Calm     93% 0.0 mm 0 W/m2
03:50 19.6 °C 18.4 °C 1010.2 hPa Calm     93% 0.0 mm 0 W/m2
03:55 19.6 °C 18.4 °C 1010.2 hPa Calm     93% 0.0 mm 0 W/m2
04:00 19.6 °C 18.4 °C 1010.2 hPa Calm     93% 0.0 mm 0 W/m2
04:05 19.6 °C 18.4 °C 1010.2 hPa Calm     93% 0.0 mm 0 W/m2
04:10 19.6 °C 18.3 °C 1010.2 hPa Calm     92% 0.0 mm 0 W/m2
04:15 19.5 °C 18.2 °C 1010.2 hPa Calm     92% 0.0 mm 0 W/m2
04:20 19.5 °C 18.2 °C 1010.2 hPa Calm     92% 0.0 mm 0 W/m2
04:25 19.6 °C 18.3 °C 1010.2 hPa Calm     92% 0.0 mm 0 W/m2
04:30 19.6 °C 18.3 °C 1010.2 hPa Calm     92% 0.0 mm 0 W/m2
04:35 19.6 °C 18.3 °C 1010.2 hPa Calm     92% 0.0 mm 0 W/m2
04:40 19.6 °C 18.4 °C 1010.2 hPa Calm     93% 0.0 mm 0 W/m2
04:45 19.6 °C 18.4 °C 1010.2 hPa Calm     93% 0.0 mm 0 W/m2
04:50 19.6 °C 18.4 °C 1010.2 hPa Calm     93% 0.0 mm 0 W/m2
04:55 19.6 °C 18.4 °C 1010.5 hPa Calm     93% 0.0 mm 0 W/m2
05:00 19.6 °C 18.4 °C 1010.5 hPa Calm     93% 0.0 mm 0 W/m2
05:05 19.6 °C 18.4 °C 1010.5 hPa Calm     93% 0.0 mm 0 W/m2
05:10 19.6 °C 18.3 °C 1010.5 hPa Calm     92% 0.0 mm 0 W/m2
05:15 19.6 °C 18.3 °C 1010.5 hPa Calm     92% 0.0 mm 0 W/m2
05:20 19.6 °C 18.3 °C 1010.5 hPa Calm     92% 0.0 mm 0 W/m2
05:25 19.6 °C 18.3 °C 1010.5 hPa Calm     92% 0.0 mm 0 W/m2
05:30 19.6 °C 18.3 °C 1010.5 hPa Calm     92% 0.0 mm 0 W/m2
05:35 19.6 °C 18.3 °C 1010.2 hPa Calm     92% 0.0 mm 0 W/m2
05:40 19.6 °C 18.3 °C 1010.2 hPa Calm     92% 0.0 mm 0 W/m2
05:45 19.6 °C 18.3 °C 1010.5 hPa Calm     92% 0.0 mm 0 W/m2
05:50 19.6 °C 18.3 °C 1010.5 hPa Calm     92% 0.0 mm 0 W/m2
05:55 19.7 °C 18.4 °C 1010.5 hPa Calm     92% 0.0 mm 0 W/m2
06:05 19.7 °C 18.2 °C 1010.5 hPa Calm     91% 0.0 mm 0 W/m2
06:10 19.7 °C 18.2 °C 1010.5 hPa Calm     91% 0.0 mm 0 W/m2
06:15 19.6 °C 18.1 °C 1010.2 hPa Calm     91% 0.0 mm 0 W/m2
06:20 19.6 °C 18.1 °C 1010.2 hPa Calm     91% 0.0 mm 0 W/m2
06:25 19.6 °C 18.1 °C 1010.2 hPa Calm     91% 0.0 mm 0 W/m2
06:30 19.6 °C 18.1 °C 1010.2 hPa Calm     91% 0.0 mm 0 W/m2
06:36 19.5 °C 18 °C 1010.2 hPa Calm     91% 0.0 mm 0 W/m2
06:41 19.4 °C 17.9 °C 1010.2 hPa Calm     91% 0.0 mm 5 W/m2
06:46 19.4 °C 17.9 °C 1010.2 hPa Calm     91% 0.0 mm 9 W/m2
06:51 19.4 °C 17.9 °C 1010.2 hPa Calm     91% 0.0 mm 14 W/m2
06:56 19.4 °C 17.9 °C 1010.5 hPa Calm     91% 0.0 mm 18 W/m2
07:01 19.5 °C 18 °C 1010.5 hPa Calm     91% 0.0 mm 19 W/m2
07:06 19.6 °C 18.1 °C 1010.5 hPa Calm     91% 0.0 mm 23 W/m2
07:11 19.6 °C 18.1 °C 1010.5 hPa Calm     91% 0.0 mm 25 W/m2
07:16 19.7 °C 18.2 °C 1010.5 hPa Calm     91% 0.0 mm 32 W/m2
07:21 19.7 °C 18.2 °C 1010.8 hPa Calm     91% 0.0 mm 35 W/m2
07:26 19.8 °C 18.3 °C 1010.8 hPa Calm     91% 0.0 mm 46 W/m2
07:31 19.9 °C 18.6 °C 1010.8 hPa South 1.4 km/h 1.6 km/h 92% 0.0 mm 53 W/m2
07:36 20.1 °C 18.6 °C 1010.8 hPa Calm     91% 0.0 mm 40 W/m2
07:41 20.2 °C 18.7 °C 1010.8 hPa Calm   1.6 km/h 91% 0.0 mm 33 W/m2
07:46 20.3 °C 18.8 °C 1010.8 hPa Calm     91% 0.0 mm 33 W/m2
07:51 20.4 °C 18.7 °C 1010.8 hPa Calm     90% 0.0 mm 42 W/m2
07:56 20.5 °C 18.8 °C 1010.8 hPa Calm     90% 0.0 mm 35 W/m2
08:01 20.6 °C 18.9 °C 1010.8 hPa Calm     90% 0.0 mm 28 W/m2
08:06 20.6 °C 18.9 °C 1010.8 hPa Calm     90% 0.0 mm 28 W/m2
08:11 20.6 °C 18.9 °C 1011.2 hPa Calm     90% 0.0 mm 30 W/m2
08:16 20.7 °C 19 °C 1011.2 hPa Calm     90% 0.0 mm 33 W/m2
08:21 20.7 °C 19 °C 1011.2 hPa Calm     90% 0.0 mm 30 W/m2
08:26 20.7 °C 18.8 °C 1011.5 hPa Calm     89% 0.0 mm 33 W/m2
08:31 20.8 °C 18.9 °C 1011.2 hPa Calm     89% 0.0 mm 39 W/m2
08:36 20.8 °C 19.1 °C 1011.5 hPa Calm   1.6 km/h 90% 0.0 mm 39 W/m2
08:41 20.8 °C 19.1 °C 1011.5 hPa Calm   1.6 km/h 90% 0.0 mm 40 W/m2
08:46 20.8 °C 19.1 °C 1011.5 hPa Calm     90% 0.0 mm 44 W/m2
08:51 20.8 °C 19.3 °C 1011.5 hPa Calm     91% 0.0 mm 47 W/m2
08:56 20.8 °C 19.3 °C 1011.5 hPa South 1.4 km/h 1.6 km/h 91% 0.0 mm 47 W/m2
09:01 20.8 °C 19.3 °C 1011.5 hPa Calm     91% 0.0 mm 49 W/m2
09:06 20.9 °C 19.4 °C 1011.5 hPa Calm     91% 0.0 mm 60 W/m2
09:11 21 °C 19.5 °C 1011.5 hPa Calm   3.2 km/h 91% 0.0 mm 97 W/m2
09:16 21.2 °C 19.7 °C 1011.5 hPa NNE 3.2 km/h 3.2 km/h 91% 0.0 mm 165 W/m2
09:21 21.4 °C 19.5 °C 1011.5 hPa Calm   3.2 km/h 89% 0.0 mm 179 W/m2
09:26 21.8 °C 19.4 °C 1011.5 hPa West 1.4 km/h 6.4 km/h 86% 0.0 mm 220 W/m2
09:31 22.4 °C 19.2 °C 1011.5 hPa NNW 3.2 km/h 6.4 km/h 82% 0.0 mm 475 W/m2
09:36 22.8 °C 19.2 °C 1011.5 hPa NNE 3.2 km/h 3.2 km/h 80% 0.0 mm 255 W/m2
09:41 23.3 °C 19.5 °C 1011.5 hPa WNW 1.4 km/h 6.4 km/h 79% 0.0 mm 243 W/m2
09:46 23.6 °C 19.5 °C 1011.5 hPa West 1.4 km/h 4.8 km/h 78% 0.0 mm 192 W/m2
09:51 23.8 °C 19.5 °C 1011.5 hPa West 1.4 km/h 4.8 km/h 77% 0.0 mm 213 W/m2
09:56 23.9 °C 19.6 °C 1011.2 hPa NW 1.4 km/h 4.8 km/h 77% 0.0 mm 206 W/m2
10:01 23.9 °C 19.4 °C 1011.2 hPa Calm   3.2 km/h 76% 0.0 mm 197 W/m2
10:06 24.1 °C 19.8 °C 1011.2 hPa Calm   4.8 km/h 77% 0.0 mm 209 W/m2
10:11 24.1 °C 19.8 °C 1011.2 hPa WNW 6.4 km/h 8 km/h 77% 0.0 mm 195 W/m2
10:16 24.1 °C 19.8 °C 1011.2 hPa NW 1.4 km/h 4.8 km/h 77% 0.0 mm 188 W/m2
10:21 23.9 °C 19.4 °C 1011.2 hPa West 3.2 km/h 9.7 km/h 76% 0.0 mm 167 W/m2
10:26 23.8 °C 19.5 °C 1011.5 hPa Calm   1.6 km/h 77% 0.0 mm 156 W/m2
10:31 23.8 °C 19.5 °C 1011.5 hPa Calm   3.2 km/h 77% 0.0 mm 139 W/m2
10:36 23.8 °C 19.5 °C 1011.5 hPa ENE 1.4 km/h 4.8 km/h 77% 0.0 mm 142 W/m2
10:41 23.8 °C 19.5 °C 1011.5 hPa Calm   3.2 km/h 77% 0.0 mm 169 W/m2
10:46 23.8 °C 19.7 °C 1011.5 hPa East 1.4 km/h 1.6 km/h 78% 0.0 mm 211 W/m2
10:51 23.9 °C 20 °C 1011.5 hPa SW 1.4 km/h 1.6 km/h 79% 0.0 mm 257 W/m2
10:56 24 °C 19.9 °C 1011.9 hPa West 4.7 km/h 4.8 km/h 78% 0.0 mm 325 W/m2
11:01 24.1 °C 20 °C 1011.5 hPa West 1.4 km/h 3.2 km/h 78% 0.0 mm 381 W/m2
11:06 24.4 °C 20.3 °C 1011.5 hPa WNW 4.7 km/h 6.4 km/h 78% 0.0 mm 613 W/m2
11:11 24.8 °C 20.5 °C 1011.9 hPa North 3.2 km/h 12.9 km/h 77% 0.0 mm 886 W/m2
11:16 25.1 °C 20.4 °C 1011.9 hPa WNW 3.2 km/h 6.4 km/h 75% 0.0 mm 390 W/m2
11:21 25.3 °C 20.3 °C 1011.9 hPa Calm   12.9 km/h 74% 0.0 mm 408 W/m2
11:26 25.6 °C 20.6 °C 1011.9 hPa NW 1.4 km/h 6.4 km/h 74% 0.0 mm 387 W/m2
11:31 25.6 °C 20.4 °C 1011.9 hPa Calm   8 km/h 73% 0.0 mm 309 W/m2
11:36 25.8 °C 20.4 °C 1011.9 hPa NE 1.4 km/h 9.7 km/h 72% 0.0 mm 281 W/m2
11:41 25.8 °C 20.4 °C 1011.9 hPa WNW 1.4 km/h 4.8 km/h 72% 0.0 mm 241 W/m2
11:46 25.8 °C 19.9 °C 1011.9 hPa WNW 1.4 km/h 4.8 km/h 70% 0.0 mm 257 W/m2
11:51 25.8 °C 19.9 °C 1011.9 hPa West 1.4 km/h 4.8 km/h 70% 0.0 mm 262 W/m2
11:56 25.7 °C 19.6 °C 1011.9 hPa ENE 1.4 km/h 3.2 km/h 69% 0.0 mm 276 W/m2
12:01 25.7 °C 19.8 °C 1011.9 hPa WNW 3.2 km/h 3.2 km/h 70% 0.0 mm 274 W/m2
12:06 25.8 °C 19.9 °C 1011.9 hPa NW 4.7 km/h 4.8 km/h 70% 0.0 mm 308 W/m2
12:11 25.8 °C 19.7 °C 1011.9 hPa West 9.7 km/h 9.7 km/h 69% 0.0 mm 642 W/m2
12:16 25.8 °C 19.4 °C 1011.9 hPa WNW 3.2 km/h 9.7 km/h 68% 0.0 mm 350 W/m2
12:21 25.9 °C 19.5 °C 1011.9 hPa WNW 13 km/h 12.9 km/h 68% 0.0 mm 647 W/m2
12:26 26.1 °C 19.7 °C 1011.9 hPa NW 4.7 km/h 11.3 km/h 68% 0.0 mm 547 W/m2
12:31 26.4 °C 19.5 °C 1011.9 hPa North 3.2 km/h 3.2 km/h 66% 0.0 mm 401 W/m2
12:36 26.8 °C 19.7 °C 1011.9 hPa WNW 13 km/h 12.9 km/h 65% 0.0 mm 591 W/m2
12:41 26.9 °C 19.5 °C 1011.9 hPa ENE 6.4 km/h 12.9 km/h 64% 0.0 mm 515 W/m2
12:46 27.2 °C 19.3 °C 1011.9 hPa East 4.7 km/h 4.8 km/h 62% 0.0 mm 640 W/m2
12:51 27.6 °C 19.4 °C 1011.9 hPa NW 4.7 km/h 6.4 km/h 61% 0.0 mm 603 W/m2
12:56 27.7 °C 18.4 °C 1011.9 hPa NNW 4.7 km/h 6.4 km/h 57% 0.0 mm 668 W/m2
13:01 27.8 °C 18.8 °C 1011.9 hPa NW 3.2 km/h 6.4 km/h 58% 0.0 mm 487 W/m2
13:06 28 °C 18.7 °C 1011.9 hPa SW 6.4 km/h 8 km/h 57% 0.0 mm 563 W/m2
13:12 28.1 °C 18.8 °C 1012.2 hPa NNW 1.4 km/h 12.9 km/h 57% 0.0 mm 645 W/m2
13:17 28.3 °C 18.4 °C 1011.9 hPa SE 3.2 km/h 3.2 km/h 55% 0.0 mm 670 W/m2
13:22 28.6 °C 19 °C 1011.9 hPa WNW 6.4 km/h 6.4 km/h 56% 0.0 mm 548 W/m2
13:27 28.6 °C 18.7 °C 1011.9 hPa Calm   6.4 km/h 55% 0.0 mm 371 W/m2
13:32 28.7 °C 18.2 °C 1011.9 hPa NW 14.3 km/h 14.5 km/h 53% 0.0 mm 573 W/m2
13:37 28.6 °C 18.1 °C 1011.9 hPa SSW 3.2 km/h 11.3 km/h 53% 0.0 mm 663 W/m2
13:42 28.7 °C 18.2 °C 1011.9 hPa NW 3.2 km/h 8 km/h 53% 0.0 mm 383 W/m2
13:47 28.9 °C 18.1 °C 1011.9 hPa WNW 1.4 km/h 8 km/h 52% 0.0 mm 733 W/m2
13:52 29.3 °C 18.4 °C 1011.9 hPa NW 1.4 km/h 4.8 km/h 52% 0.0 mm 784 W/m2
13:57 29.4 °C 17.9 °C 1011.9 hPa WNW 4.7 km/h 14.5 km/h 50% 0.0 mm 432 W/m2
14:02 29.3 °C 17.8 °C 1011.9 hPa NE 1.4 km/h 4.8 km/h 50% 0.0 mm 339 W/m2
14:07 29.2 °C 17.7 °C 1011.9 hPa WNW 4.7 km/h 9.7 km/h 50% 0.0 mm 360 W/m2
14:12 29.1 °C 17.3 °C 1011.9 hPa Calm   6.4 km/h 49% 0.0 mm 338 W/m2
14:17 29.2 °C 17.7 °C 1011.9 hPa NE 4.7 km/h 4.8 km/h 50% 0.0 mm 408 W/m2
14:22 29.2 °C 17.7 °C 1011.9 hPa WNW 3.2 km/h 4.8 km/h 50% 0.0 mm 496 W/m2
14:27 29.3 °C 17.8 °C 1011.9 hPa Calm   6.4 km/h 50% 0.0 mm 483 W/m2
14:32 29.5 °C 17.7 °C 1011.9 hPa West 4.7 km/h 4.8 km/h 49% 0.0 mm 454 W/m2
14:37 29.4 °C 17.2 °C 1011.9 hPa WNW 4.7 km/h 9.7 km/h 48% 0.0 mm 461 W/m2
14:42 29.3 °C 17.2 °C 1011.9 hPa West 3.2 km/h 3.2 km/h 48% 0.0 mm 434 W/m2
14:47 29.3 °C 17.2 °C 1011.9 hPa West 3.2 km/h 12.9 km/h 48% 0.0 mm 489 W/m2
14:52 29.3 °C 17.2 °C 1011.9 hPa SW 3.2 km/h 6.4 km/h 48% 0.0 mm 454 W/m2
14:57 29.3 °C 17.2 °C 1011.9 hPa West 6.4 km/h 12.9 km/h 48% 0.0 mm 404 W/m2
15:02 29.2 °C 16.7 °C 1011.9 hPa NW 4.7 km/h 9.7 km/h 47% 0.0 mm 471 W/m2
15:07 29.2 °C 17.1 °C 1012.2 hPa NE 1.4 km/h 3.2 km/h 48% 0.0 mm 512 W/m2
15:12 29.3 °C 17.2 °C 1011.9 hPa West 13 km/h 12.9 km/h 48% 0.0 mm 555 W/m2
15:17 29.4 °C 16.9 °C 1011.9 hPa NW 7.9 km/h 12.9 km/h 47% 0.0 mm 592 W/m2
15:22 29.6 °C 17.1 °C 1011.9 hPa West 4.7 km/h 6.4 km/h 47% 0.0 mm 519 W/m2
15:27 29.7 °C 17.2 °C 1011.9 hPa SSW 1.4 km/h 14.5 km/h 47% 0.0 mm 496 W/m2
15:32 29.6 °C 17.1 °C 1011.9 hPa NNE 4.7 km/h 6.4 km/h 47% 0.0 mm 596 W/m2
15:37 29.7 °C 17.2 °C 1011.9 hPa SSE 6.4 km/h 14.5 km/h 47% 0.0 mm 559 W/m2
15:42 29.9 °C 17.4 °C 1011.9 hPa NE 1.4 km/h 4.8 km/h 47% 0.0 mm 624 W/m2
15:47 30.1 °C 16.9 °C 1011.9 hPa NNW 1.4 km/h 6.4 km/h 45% 0.0 mm 686 W/m2
15:52 30.4 °C 16.8 °C 1011.5 hPa NW 1.4 km/h 6.4 km/h 44% 0.0 mm 649 W/m2
15:57 30.6 °C 17 °C 1011.5 hPa WSW 6.4 km/h 11.3 km/h 44% 0.0 mm 469 W/m2
16:02 30.4 °C 16.8 °C 1011.5 hPa ENE 3.2 km/h 4.8 km/h 44% 0.0 mm 642 W/m2
16:07 30.7 °C 16.3 °C 1011.5 hPa NNW 7.9 km/h 14.5 km/h 42% 0.0 mm 696 W/m2
16:12 30.9 °C 16.5 °C 1011.5 hPa WNW 1.4 km/h 17.7 km/h 42% 0.0 mm 613 W/m2
16:17 31 °C 16.2 °C 1011.5 hPa WNW 4.7 km/h 8 km/h 41% 0.0 mm 476 W/m2
16:22 31.1 °C 16.3 °C 1011.2 hPa NW 3.2 km/h 12.9 km/h 41% 0.0 mm 557 W/m2
16:27 31.2 °C 16.8 °C 1011.5 hPa SSE 4.7 km/h 11.3 km/h 42% 0.0 mm 418 W/m2
16:32 31.3 °C 16.5 °C 1011.5 hPa WNW 6.4 km/h 6.4 km/h 41% 0.0 mm 403 W/m2
16:37 30.9 °C 16.5 °C 1011.5 hPa ENE 4.7 km/h 11.3 km/h 42% 0.0 mm 443 W/m2
16:42 30.8 °C 16.4 °C 1011.2 hPa SW 6.4 km/h 8 km/h 42% 0.0 mm 392 W/m2
16:47 30.6 °C 16.2 °C 1011.2 hPa NNW 4.7 km/h 11.3 km/h 42% 0.0 mm 230 W/m2
16:52 30.3 °C 16.3 °C 1011.2 hPa NNW 3.2 km/h 4.8 km/h 43% 0.0 mm 172 W/m2
16:57 30.3 °C 16.7 °C 1010.8 hPa NW 3.2 km/h 3.2 km/h 44% 0.0 mm 598 W/m2
17:02 30.6 °C 16.2 °C 1010.8 hPa ESE 9.7 km/h 9.7 km/h 42% 0.0 mm 438 W/m2
17:07 30.7 °C 16.3 °C 1010.8 hPa West 3.2 km/h 6.4 km/h 42% 0.0 mm 316 W/m2
17:12 30.7 °C 16.3 °C 1010.8 hPa North 1.4 km/h 8 km/h 42% 0.0 mm 482 W/m2
17:17 30.8 °C 16 °C 1010.8 hPa Calm   4.8 km/h 41% 0.0 mm 308 W/m2
17:22 31 °C 15 °C 1010.8 hPa West 3.2 km/h 4.8 km/h 38% 0.0 mm 250 W/m2
17:27 30.9 °C 14.5 °C 1010.8 hPa SW 3.2 km/h 3.2 km/h 37% 0.0 mm 209 W/m2
17:32 30.9 °C 14.9 °C 1010.8 hPa Calm   3.2 km/h 38% 0.0 mm 237 W/m2
17:37 30.9 °C 15.3 °C 1010.8 hPa NE 3.2 km/h 3.2 km/h 39% 0.0 mm 292 W/m2
17:42 30.9 °C 15.3 °C 1010.8 hPa West 1.4 km/h 6.4 km/h 39% 0.0 mm 195 W/m2
17:47 30.8 °C 15.2 °C 1010.8 hPa Calm   4.8 km/h 39% 0.0 mm 176 W/m2
17:52 30.6 °C 15.1 °C 1010.8 hPa Calm   3.2 km/h 39% 0.0 mm 200 W/m2
17:57 30.6 °C 15.5 °C 1010.8 hPa SSW 1.4 km/h 1.6 km/h 40% 0.0 mm 244 W/m2
18:02 30.8 °C 15.2 °C 1010.8 hPa WNW 4.7 km/h 4.8 km/h 39% 0.0 mm 350 W/m2
18:07 31.1 °C 15.5 °C 1010.5 hPa WNW 4.7 km/h 4.8 km/h 39% 0.0 mm 422 W/m2
18:12 31.4 °C 15 °C 1010.5 hPa NW 3.2 km/h 4.8 km/h 37% 0.0 mm 526 W/m2
18:17 31.8 °C 15.7 °C 1010.5 hPa ENE 1.4 km/h 4.8 km/h 38% 0.0 mm 497 W/m2
18:22 32.2 °C 15.2 °C 1010.5 hPa East 4.7 km/h 11.3 km/h 36% 0.0 mm 464 W/m2
18:27 32.3 °C 14.9 °C 1010.5 hPa NNW 1.4 km/h 3.2 km/h 35% 0.0 mm 452 W/m2
18:32 32.6 °C 15.6 °C 1010.2 hPa Calm   11.3 km/h 36% 0.0 mm 432 W/m2
18:37 32.8 °C 15.3 °C 1010.5 hPa SW 14.3 km/h 14.5 km/h 35% 0.0 mm 415 W/m2
18:42 32.6 °C 14.7 °C 1010.5 hPa West 3.2 km/h 6.4 km/h 34% 0.0 mm 390 W/m2
18:47 32.4 °C 14.5 °C 1010.5 hPa WNW 3.2 km/h 11.3 km/h 34% 0.0 mm 357 W/m2
18:52 32.2 °C 14.3 °C 1010.5 hPa NE 1.4 km/h 3.2 km/h 34% 0.0 mm 343 W/m2
18:57 32.2 °C 14.8 °C 1010.5 hPa WSW 11.3 km/h 11.3 km/h 35% 0.0 mm 309 W/m2
19:02 32.1 °C 14.7 °C 1010.5 hPa WSW 3.2 km/h 8 km/h 35% 0.0 mm 279 W/m2
19:07 32 °C 14.6 °C 1010.5 hPa SW 6.4 km/h 8 km/h 35% 0.0 mm 253 W/m2
19:12 31.8 °C 14.4 °C 1010.5 hPa WNW 7.9 km/h 8 km/h 35% 0.0 mm 221 W/m2
19:17 31.6 °C 14.7 °C 1010.5 hPa WSW 1.4 km/h 3.2 km/h 36% 0.0 mm 199 W/m2
19:23 31.7 °C 14.8 °C 1010.5 hPa SW 4.7 km/h 4.8 km/h 36% 0.0 mm 179 W/m2
19:28 31.6 °C 14.7 °C 1010.5 hPa West 3.2 km/h 9.7 km/h 36% 0.0 mm 156 W/m2
19:33 31.3 °C 14.9 °C 1010.8 hPa NW 6.4 km/h 9.7 km/h 37% 0.0 mm 142 W/m2
19:38 30.9 °C 14.5 °C 1010.8 hPa West 4.7 km/h 12.9 km/h 37% 0.0 mm 132 W/m2
19:43 30.7 °C 14.8 °C 1010.8 hPa WSW 4.7 km/h 6.4 km/h 38% 0.0 mm 125 W/m2
19:48 30.6 °C 15.1 °C 1010.8 hPa WSW 3.2 km/h 8 km/h 39% 0.0 mm 121 W/m2
19:53 30.5 °C 15 °C 1010.8 hPa West 1.4 km/h 4.8 km/h 39% 0.0 mm 111 W/m2
19:58 30.5 °C 15.8 °C 1010.8 hPa West 3.2 km/h 4.8 km/h 41% 0.0 mm 100 W/m2
20:03 30.4 °C 15.3 °C 1010.8 hPa WSW 3.2 km/h 4.8 km/h 40% 0.0 mm 86 W/m2
20:08 30.3 °C 15.2 °C 1010.8 hPa SW 4.7 km/h 9.7 km/h 40% 0.0 mm 74 W/m2
20:13 30.1 °C 15 °C 1010.8 hPa SW 4.7 km/h 6.4 km/h 40% 0.0 mm 37 W/m2
20:18 29.6 °C 15 °C 1010.8 hPa WNW 9.7 km/h 11.3 km/h 41% 0.0 mm 23 W/m2
20:23 29.2 °C 15 °C 1010.8 hPa West 1.4 km/h 4.8 km/h 42% 0.0 mm 19 W/m2
20:28 28.9 °C 14.7 °C 1010.8 hPa West 1.4 km/h 11.3 km/h 42% 0.0 mm 18 W/m2
Juneau County Weather
Compliments of Weather Underground - 2 mb